LSZB/BRN METAR and TAF weather

Enter ICAO airport designator
Station Type Date Time Source
LSZB METAR 2022/05/24 11:20 UTC NOAA

LSZB 241120Z 28009KT 9999 FEW029 SCT032 BKN040 15/09 Q1012 NOSIG


Station Type Date Time Source
LSZB Decoded METAR 2022/05/24 11:20 UTC NOAA

Bern / Belp , Switzerland (LSZB) 46-55N 007-30E
May 24, 2022 - 07:20 AM EDT / 2022.05.24 1120 UTC
Wind: from the W (280 degrees) at 10 MPH (9 KT):0
Visibility: greater than 7 mile(s):0
Sky conditions: mostly cloudy
Temperature: 59 F (15 C)
Dew Point: 48 F (9 C)
Relative Humidity: 67%
Pressure (altimeter): 29.88 in. Hg (1012 hPa)
ob: LSZB 241120Z 28009KT 9999 FEW029 SCT032 BKN040 15/09 Q1012 NOSIG
cycle: 11

Station Type Date Time Source
LSZB TAF 2014/12/22 20:03 UTC NOAA

TAF
AMD TAF
AMD LSZB 222054Z 2220/2224 CNL

Example: see airport list